Time;durP1;ratioP1;P1;durP2;ratioP2;P2;SDS_P1;SDS_P2;PMS_P1;PMS_P2;Temp;Humidity;BMP_temperature;BMP_pressure;BME280_temperature;BME280_humidity;BME280_pressure;Samples;Min_cycle;Max_cycle;Signal;HPM_P1;HPM_P2
2023/08/05 00:01:20;;;;;;;3.10;2.23;;;18.00;99.90;;;;;;5031026;28;20191;-85
2023/08/05 00:03:45;;;;;;;2.20;2.00;;;17.80;99.90;;;;;;5023008;28;20424;-85
2023/08/05 00:06:11;;;;;;;4.67;2.10;;;18.00;99.90;;;;;;5026594;28;20185;-85
2023/08/05 00:08:38;;;;;;;5.63;2.00;;;18.70;99.90;;;;;;5023498;28;20587;-85
2023/08/05 00:11:03;;;;;;;4.13;2.20;;;19.30;99.90;;;;;;5043844;28;20196;-85
2023/08/05 00:13:34;;;;;;;2.03;1.70;;;19.80;99.90;;;;;;5009133;28;20487;-87
2023/08/05 00:16:00;;;;;;;2.67;1.70;;;20.10;99.90;;;;;;5023745;28;20189;-88
2023/08/05 00:18:27;;;;;;;2.27;1.90;;;20.30;99.90;;;;;;5027116;28;20192;-85
2023/08/05 00:20:52;;;;;;;6.33;2.40;;;20.50;99.90;;;;;;5027155;28;20191;-85
2023/08/05 00:23:19;;;;;;;2.33;1.60;;;20.60;99.90;;;;;;5044297;28;20200;-85
2023/08/05 00:25:45;;;;;;;3.30;1.70;;;20.60;99.90;;;;;;5023644;28;20193;-85
2023/08/05 00:28:11;;;;;;;3.33;1.90;;;20.70;99.90;;;;;;5023928;28;20235;-85
2023/08/05 00:30:36;;;;;;;2.53;1.70;;;20.50;99.90;;;;;;5033335;28;20202;-85
2023/08/05 00:33:02;;;;;;;2.23;1.63;;;20.60;99.90;;;;;;5043378;28;20520;-85
2023/08/05 00:35:28;;;;;;;2.33;1.77;;;20.70;99.90;;;;;;5043640;28;20331;-85
2023/08/05 00:37:56;;;;;;;2.00;1.80;;;20.10;99.90;;;;;;5043465;28;20180;-85
2023/08/05 00:40:22;;;;;;;4.33;2.00;;;19.90;99.90;;;;;;5040263;28;20596;-85
2023/08/05 00:42:48;;;;;;;3.13;1.90;;;19.70;99.90;;;;;;5040488;28;20213;-85
2023/08/05 00:45:14;;;;;;;1.67;1.57;;;19.90;99.90;;;;;;5043592;28;20412;-85
2023/08/05 00:47:42;;;;;;;2.67;1.70;;;20.20;99.90;;;;;;5022605;28;20819;-85
2023/08/05 00:50:08;;;;;;;4.70;1.67;;;20.30;99.90;;;;;;5024480;28;20279;-85
2023/08/05 00:52:35;;;;;;;3.93;1.70;;;20.50;99.90;;;;;;5040305;28;20618;-85
2023/08/05 00:55:01;;;;;;;1.83;1.67;;;20.60;99.90;;;;;;5026160;28;20635;-85
2023/08/05 00:57:27;;;;;;;2.67;1.90;;;20.60;99.90;;;;;;5039997;28;20180;-86
2023/08/05 00:59:52;;;;;;;4.20;1.80;;;20.70;99.90;;;;;;5041150;28;20605;-86
2023/08/05 01:02:21;;;;;;;5.43;1.80;;;20.50;99.90;;;;;;5023763;28;20189;-85
2023/08/05 01:04:46;;;;;;;1.97;1.87;;;20.20;99.90;;;;;;5041356;28;20298;-85
2023/08/05 01:07:20;;;;;;;4.07;1.90;;;19.20;99.90;;;;;;5025784;28;20283;-85
2023/08/05 01:09:46;;;;;;;3.37;2.00;;;18.90;99.90;;;;;;5027615;28;20557;-85
2023/08/05 01:12:14;;;;;;;2.23;1.90;;;19.20;99.90;;;;;;5040766;28;20239;-85
2023/08/05 01:14:43;;;;;;;2.00;1.63;;;19.60;99.90;;;;;;5041886;28;20240;-86
2023/08/05 01:17:11;;;;;;;2.07;1.80;;;20.00;99.90;;;;;;5043011;28;20176;-85
2023/08/05 01:19:40;;;;;;;2.17;1.80;;;20.20;99.90;;;;;;5028849;28;20188;-85
2023/08/05 01:22:18;;;;;;;2.23;1.60;;;20.30;99.90;;;;;;5025667;28;20189;-85
2023/08/05 01:25:06;;;;;;;2.37;1.70;;;20.40;99.90;;;;;;5043849;28;20188;-85
2023/08/05 01:27:33;;;;;;;3.23;1.90;;;20.50;99.90;;;;;;5023476;28;20319;-85
2023/08/05 01:30:02;;;;;;;2.60;2.10;;;20.00;99.90;;;;;;5027207;28;20230;-85
2023/08/05 01:32:31;;;;;;;2.37;1.83;;;20.00;99.90;;;;;;5025213;28;20605;-85
2023/08/05 01:34:57;;;;;;;1.97;1.70;;;20.20;99.90;;;;;;5044559;28;20609;-85
2023/08/05 01:37:23;;;;;;;2.00;1.63;;;20.30;99.90;;;;;;5029079;28;20516;-85
2023/08/05 01:39:49;;;;;;;3.27;1.80;;;20.30;99.90;;;;;;5043489;28;20614;-85
2023/08/05 01:42:15;;;;;;;1.60;1.50;;;20.30;99.90;;;;;;5029504;28;20191;-86
2023/08/05 01:44:40;;;;;;;2.57;1.67;;;20.30;99.90;;;;;;5028543;28;20181;-85
2023/08/05 01:47:07;;;;;;;2.73;1.80;;;20.40;99.90;;;;;;5029097;28;20376;-85
2023/08/05 01:49:33;;;;;;;2.47;1.60;;;20.50;99.90;;;;;;5029662;28;20216;-85
2023/08/05 01:51:58;;;;;;;1.60;1.50;;;20.50;99.90;;;;;;5045782;28;20649;-86
2023/08/05 01:54:24;;;;;;;3.40;1.67;;;20.60;99.90;;;;;;5031199;28;20180;-86
2023/08/05 01:56:50;;;;;;;3.20;1.70;;;20.60;99.90;;;;;;5026243;28;20220;-86
2023/08/05 01:59:16;;;;;;;1.70;1.60;;;20.60;99.90;;;;;;5030935;28;20181;-85
2023/08/05 02:01:42;;;;;;;1.77;1.40;;;20.60;99.90;;;;;;5030256;28;20262;-86
2023/08/05 02:04:12;;;;;;;1.70;1.60;;;20.60;99.90;;;;;;5027536;28;20185;-85
2023/08/05 02:06:41;;;;;;;1.50;1.40;;;20.70;99.90;;;;;;5028704;28;20187;-85
2023/08/05 02:09:07;;;;;;;1.77;1.60;;;20.70;99.90;;;;;;5027321;28;20219;-85
2023/08/05 02:11:33;;;;;;;2.50;1.60;;;20.70;99.90;;;;;;5025310;28;20231;-85
2023/08/05 02:13:59;;;;;;;1.60;1.40;;;20.70;99.90;;;;;;5028910;28;20710;-85
2023/08/05 02:16:25;;;;;;;1.63;1.53;;;20.70;99.90;;;;;;5025712;28;20469;-85
2023/08/05 02:18:52;;;;;;;1.80;1.50;;;20.80;99.90;;;;;;5027482;28;20189;-85
2023/08/05 02:21:20;;;;;;;2.17;1.60;;;20.80;99.90;;;;;;5032176;28;20197;-86
2023/08/05 02:23:46;;;;;;;1.70;1.60;;;20.80;99.90;;;;;;5028339;28;20196;-86
2023/08/05 02:26:12;;;;;;;1.40;1.30;;;20.70;99.90;;;;;;5045031;28;20242;-86
2023/08/05 02:28:38;;;;;;;2.97;1.80;;;20.70;99.90;;;;;;5047562;28;20208;-86
2023/08/05 02:31:04;;;;;;;1.90;1.50;;;20.70;99.90;;;;;;5026120;28;20232;-86
2023/08/05 02:33:29;;;;;;;1.50;1.40;;;20.70;99.90;;;;;;5027333;28;20457;-86
2023/08/05 02:35:59;;;;;;;1.70;1.60;;;20.70;99.90;;;;;;5030890;28;20195;-86
2023/08/05 02:38:25;;;;;;;1.60;1.40;;;20.70;99.90;;;;;;5029102;28;20366;-86
2023/08/05 02:40:51;;;;;;;1.63;1.53;;;20.80;99.90;;;;;;5048785;28;20179;-86
2023/08/05 02:43:17;;;;;;;1.60;1.40;;;20.80;99.90;;;;;;5028133;28;20220;-86
2023/08/05 02:45:44;;;;;;;1.30;1.20;;;20.70;99.90;;;;;;5048327;28;20212;-85
2023/08/05 02:48:10;;;;;;;2.20;1.50;;;20.80;99.90;;;;;;5027797;28;20208;-85
2023/08/05 02:50:35;;;;;;;1.73;1.53;;;20.80;99.90;;;;;;5038713;28;20190;-86
2023/08/05 02:53:01;;;;;;;2.03;1.20;;;20.80;99.90;;;;;;5028181;28;20192;-86
2023/08/05 02:55:28;;;;;;;1.50;1.40;;;20.80;99.90;;;;;;5029969;28;20184;-85
2023/08/05 02:57:53;;;;;;;1.80;1.40;;;20.80;99.90;;;;;;5027897;28;20188;-86
2023/08/05 03:00:19;;;;;;;1.93;1.60;;;20.80;99.90;;;;;;5044573;28;20184;-85
2023/08/05 03:02:45;;;;;;;1.77;1.50;;;20.80;99.90;;;;;;5028508;28;20200;-86
2023/08/05 03:05:12;;;;;;;2.07;1.37;;;20.80;99.90;;;;;;5044038;28;20189;-86
2023/08/05 03:07:43;;;;;;;2.57;1.50;;;20.70;99.90;;;;;;5028903;28;20219;-85
2023/08/05 03:10:09;;;;;;;1.60;1.40;;;20.70;99.90;;;;;;5042532;28;20248;-85
2023/08/05 03:12:35;;;;;;;1.70;1.37;;;20.70;99.90;;;;;;5030096;28;20188;-86
2023/08/05 03:15:01;;;;;;;1.60;1.40;;;20.80;99.90;;;;;;5027499;28;20185;-85
2023/08/05 03:17:26;;;;;;;1.50;1.37;;;20.80;99.90;;;;;;5043423;28;20181;-86
2023/08/05 03:19:52;;;;;;;1.50;1.40;;;20.80;99.90;;;;;;5045731;28;20538;-86
2023/08/05 03:22:18;;;;;;;1.53;1.40;;;20.80;99.90;;;;;;5026196;28;20196;-86
2023/08/05 03:24:44;;;;;;;2.03;1.40;;;20.80;99.90;;;;;;5028990;28;20266;-86
2023/08/05 03:27:10;;;;;;;2.20;1.30;;;20.80;99.90;;;;;;5046738;28;20234;-86
2023/08/05 03:29:35;;;;;;;1.70;1.40;;;20.70;99.90;;;;;;5025582;28;20216;-86
2023/08/05 03:32:01;;;;;;;1.50;1.40;;;20.70;99.90;;;;;;5027797;28;20554;-85
2023/08/05 03:34:30;;;;;;;1.73;1.37;;;20.70;99.90;;;;;;5027311;28;20184;-85
2023/08/05 03:36:56;;;;;;;2.80;1.63;;;20.70;99.90;;;;;;5032797;28;20202;-86
2023/08/05 03:39:22;;;;;;;1.63;1.43;;;20.70;99.90;;;;;;5027848;28;20176;-85
2023/08/05 03:41:48;;;;;;;1.53;1.20;;;20.70;99.90;;;;;;5041439;28;20184;-85
2023/08/05 03:44:17;;;;;;;2.03;1.73;;;20.70;99.90;;;;;;5023364;28;20272;-86
2023/08/05 03:46:45;;;;;;;1.50;1.30;;;20.70;99.90;;;;;;5024963;28;20577;-85
2023/08/05 03:49:10;;;;;;;1.50;1.40;;;20.70;99.90;;;;;;5027314;28;20215;-85
2023/08/05 03:51:36;;;;;;;1.30;1.20;;;20.60;99.90;;;;;;5024008;28;20192;-85
2023/08/05 03:54:02;;;;;;;1.33;1.23;;;20.60;99.90;;;;;;5044144;28;20327;-85
2023/08/05 03:56:31;;;;;;;6.17;1.40;;;20.60;99.90;;;;;;5043938;28;20458;-85
2023/08/05 03:58:58;;;;;;;1.67;1.57;;;20.60;99.90;;;;;;5040923;28;20211;-86
2023/08/05 04:01:24;;;;;;;1.67;1.57;;;20.60;99.90;;;;;;5027748;28;20188;-86
2023/08/05 04:03:53;;;;;;;1.83;1.60;;;20.60;99.90;;;;;;5026859;28;20269;-86
2023/08/05 04:06:20;;;;;;;5.30;1.80;;;20.60;99.90;;;;;;5025159;28;20562;-86
2023/08/05 04:08:54;;;;;;;1.30;1.20;;;20.50;99.90;;;;;;5039915;28;20712;-86
2023/08/05 04:11:20;;;;;;;1.50;1.40;;;20.50;99.90;;;;;;5026876;28;20242;-85
2023/08/05 04:13:47;;;;;;;1.60;1.40;;;20.50;99.90;;;;;;5025069;28;20445;-85
2023/08/05 04:16:19;;;;;;;1.40;1.30;;;20.60;99.90;;;;;;5027664;28;20533;-85
2023/08/05 04:18:48;;;;;;;1.53;1.43;;;20.60;99.90;;;;;;5043780;28;20194;-86
2023/08/05 04:21:17;;;;;;;2.40;1.30;;;20.50;99.90;;;;;;5023986;28;20222;-86
2023/08/05 04:23:43;;;;;;;1.43;1.33;;;20.60;99.90;;;;;;5023781;28;20638;-86
2023/08/05 04:26:09;;;;;;;1.40;1.30;;;20.60;99.90;;;;;;5026990;28;20219;-86
2023/08/05 04:28:35;;;;;;;1.47;1.37;;;20.50;99.90;;;;;;5041470;28;20223;-86
2023/08/05 04:31:01;;;;;;;1.70;1.40;;;20.60;99.90;;;;;;5023990;28;20181;-85
2023/08/05 04:33:26;;;;;;;1.70;1.60;;;20.20;99.90;;;;;;5022225;28;20386;-85
2023/08/05 04:35:57;;;;;;;2.17;1.40;;;20.20;99.90;;;;;;5025550;28;20184;-86
2023/08/05 04:38:23;;;;;;;1.77;1.50;;;20.30;99.90;;;;;;5022443;28;20192;-85
2023/08/05 04:40:52;;;;;;;1.93;1.50;;;20.40;99.90;;;;;;5025980;28;20179;-85
2023/08/05 04:43:17;;;;;;;1.83;1.53;;;20.40;99.90;;;;;;5023357;28;20512;-85
2023/08/05 04:45:44;;;;;;;4.67;1.60;;;20.50;99.90;;;;;;5041202;28;20179;-85
2023/08/05 04:48:10;;;;;;;1.50;1.40;;;20.50;99.90;;;;;;5042254;28;20274;-86
2023/08/05 04:50:37;;;;;;;2.77;1.60;;;20.50;99.90;;;;;;5044157;28;20394;-86
2023/08/05 04:53:04;;;;;;;1.67;1.57;;;20.50;99.90;;;;;;5025206;28;20253;-86
2023/08/05 04:55:30;;;;;;;2.07;1.50;;;20.50;99.90;;;;;;5028995;28;20415;-86
2023/08/05 04:57:56;;;;;;;3.37;2.00;;;20.60;99.90;;;;;;5029328;28;20484;-85
2023/08/05 05:00:25;;;;;;;2.60;2.10;;;20.10;99.90;;;;;;5028616;28;20566;-85
2023/08/05 05:02:51;;;;;;;4.63;3.77;;;19.10;99.90;;;;;;5029776;28;20261;-85
2023/08/05 05:05:17;;;;;;;3.97;2.63;;;18.20;99.90;;;;;;5029769;28;20453;-85
2023/08/05 05:07:45;;;;;;;3.50;2.90;;;18.30;99.90;;;;;;5032709;28;20569;-86
2023/08/05 05:10:11;;;;;;;5.47;2.50;;;18.90;99.90;;;;;;5029462;28;20284;-85
2023/08/05 05:12:37;;;;;;;4.17;1.90;;;19.40;99.90;;;;;;5033069;28;20294;-85
2023/08/05 05:15:03;;;;;;;3.10;1.77;;;19.70;99.90;;;;;;5028564;28;20285;-85
2023/08/05 05:17:41;;;;;;;4.30;1.80;;;20.00;99.90;;;;;;5030460;28;20252;-86
2023/08/05 05:20:09;;;;;;;1.97;1.53;;;20.20;99.90;;;;;;5051354;28;20444;-85
2023/08/05 05:22:36;;;;;;;5.00;2.40;;;20.30;99.90;;;;;;5029709;28;20189;-85
2023/08/05 05:25:02;;;;;;;3.53;1.60;;;20.40;99.90;;;;;;5031663;28;20168;-86
2023/08/05 05:27:28;;;;;;;2.27;1.87;;;20.50;99.90;;;;;;5046116;28;20309;-85
2023/08/05 05:29:54;;;;;;;2.13;1.43;;;20.60;99.90;;;;;;5030765;28;20189;-86
2023/08/05 05:32:20;;;;;;;2.00;1.40;;;20.60;99.90;;;;;;5033454;28;20183;-86
2023/08/05 05:34:45;;;;;;;2.10;1.60;;;20.70;99.90;;;;;;5029523;28;20180;-86
2023/08/05 05:37:11;;;;;;;1.60;1.50;;;20.70;99.90;;;;;;5027706;28;20203;-86
2023/08/05 05:39:40;;;;;;;1.43;1.33;;;20.70;99.90;;;;;;5031476;28;20188;-86
2023/08/05 05:42:08;;;;;;;1.30;1.20;;;20.80;99.90;;;;;;5045143;28;20172;-86
2023/08/05 05:44:34;;;;;;;1.47;1.37;;;20.80;99.90;;;;;;5045172;28;20204;-86
2023/08/05 05:46:59;;;;;;;1.50;1.40;;;20.90;99.90;;;;;;5026803;28;20270;-86
2023/08/05 05:49:27;;;;;;;1.77;1.40;;;20.90;99.90;;;;;;5030430;28;20270;-86
2023/08/05 05:51:55;;;;;;;1.53;1.43;;;20.90;99.90;;;;;;5025919;28;20191;-86
2023/08/05 05:54:21;;;;;;;2.13;1.40;;;21.00;99.90;;;;;;5029302;28;20444;-86
2023/08/05 05:56:47;;;;;;;1.50;1.33;;;21.00;99.90;;;;;;5045729;28;20169;-86
2023/08/05 05:59:13;;;;;;;2.53;1.40;;;21.10;99.90;;;;;;5032690;28;20183;-86
2023/08/05 06:01:39;;;;;;;1.53;1.43;;;21.10;99.90;;;;;;5033165;28;20215;-86
2023/08/05 06:04:09;;;;;;;3.03;1.50;;;21.20;99.90;;;;;;5046467;28;20173;-86
2023/08/05 06:06:35;;;;;;;1.40;1.30;;;21.30;99.90;;;;;;5026297;28;20192;-86
2023/08/05 06:09:02;;;;;;;2.77;2.03;;;21.30;99.90;;;;;;5028580;28;20232;-86
2023/08/05 06:11:32;;;;;;;2.33;1.50;;;21.30;99.90;;;;;;5024679;28;20215;-86
2023/08/05 06:14:01;;;;;;;1.67;1.33;;;21.40;99.90;;;;;;5042798;28;20173;-86
2023/08/05 06:16:27;;;;;;;1.40;1.30;;;21.40;99.90;;;;;;5043757;28;20630;-85
2023/08/05 06:18:53;;;;;;;1.83;1.60;;;21.50;99.90;;;;;;5043374;28;20496;-86
2023/08/05 06:21:19;;;;;;;1.47;1.30;;;21.60;99.90;;;;;;5025026;28;20180;-86
2023/08/05 06:23:44;;;;;;;2.23;1.47;;;21.60;99.90;;;;;;5044333;28;20210;-86
2023/08/05 06:26:13;;;;;;;1.50;1.40;;;21.60;99.90;;;;;;5024574;28;20185;-86
2023/08/05 06:28:38;;;;;;;1.70;1.50;;;21.60;99.90;;;;;;5027913;28;20212;-86
2023/08/05 06:31:04;;;;;;;3.47;1.47;;;21.60;99.90;;;;;;5024594;28;20207;-86
2023/08/05 06:33:30;;;;;;;4.10;3.70;;;21.70;99.90;;;;;;5042794;28;20238;-86
2023/08/05 06:35:55;;;;;;;2.70;2.50;;;21.70;99.90;;;;;;5023904;28;20243;-86
2023/08/05 06:38:24;;;;;;;5.83;3.20;;;21.70;99.90;;;;;;5024584;28;20188;-86
2023/08/05 06:40:51;;;;;;;4.63;2.90;;;21.70;99.90;;;;;;5021496;28;20216;-86
2023/08/05 06:43:17;;;;;;;4.47;2.77;;;21.50;99.90;;;;;;5025938;28;20184;-86
2023/08/05 06:45:43;;;;;;;3.87;2.30;;;21.50;99.90;;;;;;5024332;28;20181;-86
2023/08/05 06:48:09;;;;;;;2.77;2.50;;;21.50;99.90;;;;;;5031578;28;20204;-86
2023/08/05 06:50:34;;;;;;;3.80;3.07;;;21.60;99.90;;;;;;5023617;28;20189;-86
2023/08/05 06:53:00;;;;;;;3.50;2.10;;;21.70;99.90;;;;;;5041108;28;20324;-86
2023/08/05 06:55:25;;;;;;;2.20;2.00;;;21.80;99.90;;;;;;5041784;28;20424;-86
2023/08/05 06:57:51;;;;;;;5.00;3.70;;;21.90;99.90;;;;;;5041478;28;20176;-86
2023/08/05 07:00:17;;;;;;;5.17;3.40;;;22.00;99.90;;;;;;5021265;28;20255;-86
2023/08/05 07:02:43;;;;;;;4.97;4.00;;;21.50;99.90;;;;;;5024483;28;20188;-86
2023/08/05 07:05:09;;;;;;;2.60;2.27;;;21.60;99.90;;;;;;5038184;28;20208;-86
2023/08/05 07:07:35;;;;;;;2.97;2.23;;;21.70;99.90;;;;;;5041348;28;20318;-86
2023/08/05 07:10:03;;;;;;;5.77;4.00;;;21.90;99.90;;;;;;5021795;28;20189;-86
2023/08/05 07:12:29;;;;;;;4.70;3.30;;;22.10;99.90;;;;;;5022435;28;20289;-86
2023/08/05 07:14:55;;;;;;;4.17;2.70;;;22.30;99.90;;;;;;5023590;28;20286;-86
2023/08/05 07:17:22;;;;;;;8.57;5.07;;;22.40;99.90;;;;;;5022758;28;20192;-86
2023/08/05 07:19:51;;;;;;;7.40;5.50;;;22.30;99.90;;;;;;5025622;28;20180;-86
2023/08/05 07:22:17;;;;;;;7.40;5.73;;;22.00;99.90;;;;;;5043029;28;20180;-86
2023/08/05 07:24:43;;;;;;;7.00;5.30;;;21.90;99.90;;;;;;5022254;28;20696;-86
2023/08/05 07:27:09;;;;;;;8.40;5.43;;;21.80;99.90;;;;;;5024276;28;20177;-86
2023/08/05 07:29:37;;;;;;;8.70;6.10;;;21.70;99.90;;;;;;5022672;28;20239;-85
2023/08/05 07:32:06;;;;;;;7.77;5.90;;;21.60;99.90;;;;;;5021765;28;20173;-86
2023/08/05 07:34:32;;;;;;;6.37;4.63;;;21.60;99.90;;;;;;5019419;28;20326;-85
2023/08/05 07:36:59;;;;;;;8.50;6.20;;;21.80;99.90;;;;;;5020986;28;20180;-85
2023/08/05 07:39:28;;;;;;;12.37;6.90;;;22.20;99.90;;;;;;5040539;28;20257;-85
2023/08/05 07:41:54;;;;;;;7.87;6.30;;;22.40;99.90;;;;;;5021170;28;20185;-85
2023/08/05 07:44:19;;;;;;;8.40;6.13;;;22.40;99.90;;;;;;5041087;28;20183;-86
2023/08/05 07:46:47;;;;;;;12.17;8.10;;;22.50;99.90;;;;;;5022532;28;20181;-86
2023/08/05 07:49:17;;;;;;;7.37;5.37;;;22.70;99.90;;;;;;5020996;28;20258;-85
2023/08/05 07:51:46;;;;;;;6.37;4.73;;;22.80;99.90;;;;;;5044556;28;20168;-86
2023/08/05 07:54:13;;;;;;;10.07;6.13;;;22.90;99.90;;;;;;5027693;28;20535;-86
2023/08/05 07:56:41;;;;;;;7.17;6.13;;;22.70;99.90;;;;;;5037197;28;20173;-85
2023/08/05 07:59:07;;;;;;;9.20;8.27;;;22.80;99.90;;;;;;5039074;28;20177;-86
2023/08/05 08:01:33;;;;;;;13.27;11.87;;;23.00;99.90;;;;;;5022579;28;20194;-86
2023/08/05 08:04:02;;;;;;;11.03;8.03;;;23.00;99.90;;;;;;5022487;28;20582;-86
2023/08/05 08:06:28;;;;;;;8.47;7.10;;;23.00;99.90;;;;;;5017305;28;20469;-86
2023/08/05 08:08:54;;;;;;;9.17;7.67;;;23.20;99.90;;;;;;5037775;28;20203;-86
2023/08/05 08:11:20;;;;;;;8.43;6.73;;;23.40;99.50;;;;;;5019767;28;20181;-85
2023/08/05 08:13:50;;;;;;;11.93;8.63;;;24.00;98.20;;;;;;5020529;28;20218;-86
2023/08/05 08:16:18;;;;;;;9.13;6.83;;;24.40;96.80;;;;;;5039021;28;20522;-85
2023/08/05 08:18:44;;;;;;;8.07;7.13;;;24.40;96.00;;;;;;5017668;28;20175;-85
2023/08/05 08:21:09;;;;;;;11.52;8.57;;;24.60;95.30;;;;;;5017490;28;20251;-85
2023/08/05 08:23:35;;;;;;;9.03;6.37;;;24.90;94.30;;;;;;5041366;28;20508;-86
2023/08/05 08:26:01;;;;;;;7.65;6.50;;;25.10;93.90;;;;;;5034474;28;20432;-85
2023/08/05 08:28:27;;;;;;;6.80;6.07;;;25.30;93.10;;;;;;5035362;28;20208;-85
2023/08/05 08:31:00;;;;;;;7.43;5.90;;;25.30;93.10;;;;;;5034133;28;20172;-85
2023/08/05 08:33:26;;;;;;;6.13;5.50;;;25.40;93.00;;;;;;5017500;28;20507;-86
2023/08/05 08:35:52;;;;;;;6.85;5.32;;;25.50;92.90;;;;;;5032483;28;20323;-86
2023/08/05 08:38:19;;;;;;;7.80;6.72;;;25.60;92.80;;;;;;5014568;28;20281;-86
2023/08/05 08:40:48;;;;;;;10.10;6.60;;;25.70;91.50;;;;;;5017942;28;20241;-86
2023/08/05 08:43:19;;;;;;;8.15;7.10;;;25.50;91.50;;;;;;5014525;28;20181;-86
2023/08/05 08:45:48;;;;;;;5.72;5.07;;;25.30;92.50;;;;;;5018411;28;20173;-86
2023/08/05 08:48:16;;;;;;;6.03;5.35;;;25.40;92.90;;;;;;5033295;28;20204;-85
2023/08/05 08:50:43;;;;;;;6.75;5.13;;;25.10;93.20;;;;;;5021092;28;20283;-86
2023/08/05 08:53:12;;;;;;;6.18;4.25;;;25.20;93.50;;;;;;5019979;28;20187;-86
2023/08/05 08:55:51;;;;;;;6.07;4.80;;;25.30;93.90;;;;;;5031384;28;20610;-85
2023/08/05 08:58:16;;;;;;;6.57;4.70;;;25.30;93.70;;;;;;5031416;28;20192;-85
2023/08/05 09:00:42;;;;;;;6.30;4.78;;;25.00;94.70;;;;;;5043227;28;20191;-85
2023/08/05 09:03:16;;;;;;;7.82;4.80;;;24.80;95.00;;;;;;5032672;28;20249;-85
2023/08/05 09:05:58;;;;;;;5.78;4.28;;;24.60;95.70;;;;;;5020037;28;20178;-85
2023/08/05 09:08:25;;;;;;;6.13;5.13;;;24.50;96.20;;;;;;5022517;28;20592;-85
2023/08/05 09:10:54;;;;;;;6.07;4.25;;;24.50;96.40;;;;;;5032987;28;20237;-85
2023/08/05 09:13:21;;;;;;;8.48;4.63;;;24.30;96.90;;;;;;5033556;28;20180;-85
2023/08/05 09:15:49;;;;;;;10.63;4.85;;;24.10;97.70;;;;;;5028745;28;20172;-85
2023/08/05 09:18:18;;;;;;;8.57;4.60;;;24.10;98.10;;;;;;5030925;28;20692;-86
2023/08/05 09:20:48;;;;;;;8.80;4.90;;;24.10;98.10;;;;;;5017366;28;20724;-85
2023/08/05 09:23:15;;;;;;;7.13;4.77;;;24.00;98.20;;;;;;5029626;28;20532;-85
2023/08/05 09:25:50;;;;;;;9.07;5.63;;;23.90;98.30;;;;;;5025628;28;20582;-85
2023/08/05 09:28:30;;;;;;;9.47;5.77;;;24.00;98.20;;;;;;5016070;28;20689;-86
2023/08/05 09:31:16;;;;;;;8.27;5.10;;;24.00;98.10;;;;;;5031074;28;20180;-85
2023/08/05 09:33:43;;;;;;;7.40;5.67;;;23.80;98.20;;;;;;5016191;28;20212;-86
2023/08/05 09:36:12;;;;;;;7.37;6.10;;;23.70;97.60;;;;;;5046570;28;20531;-86
2023/08/05 09:38:45;;;;;;;6.88;5.50;;;23.70;96.90;;;;;;5031531;28;20177;-85
2023/08/05 09:41:11;;;;;;;6.03;5.38;;;23.70;98.20;;;;;;5017897;28;20586;-86
2023/08/05 09:43:45;;;;;;;6.97;6.28;;;23.70;94.80;;;;;;5039666;28;20409;-86
2023/08/05 09:46:14;;;;;;;8.13;6.78;;;23.70;96.50;;;;;;5029789;28;20735;-86
2023/08/05 09:48:45;;;;;;;8.10;6.67;;;23.30;96.50;;;;;;5020824;28;20264;-86
2023/08/05 09:51:18;;;;;;;7.73;5.90;;;23.30;95.20;;;;;;5033963;28;20181;-86
2023/08/05 09:53:46;;;;;;;7.60;6.20;;;23.30;97.40;;;;;;5034630;28;20794;-86
2023/08/05 09:56:20;;;;;;;6.07;5.55;;;23.50;97.10;;;;;;5052437;28;20185;-86
2023/08/05 09:58:48;;;;;;;7.85;7.15;;;23.70;96.00;;;;;;5041276;28;20168;-86
2023/08/05 10:01:19;;;;;;;7.03;6.30;;;23.20;95.50;;;;;;5024712;28;20212;-86
2023/08/05 10:03:49;;;;;;;6.90;6.13;;;23.30;97.00;;;;;;5037521;28;20233;-86
2023/08/05 10:06:15;;;;;;;6.97;6.33;;;23.20;95.80;;;;;;5035555;28;20188;-86
2023/08/05 10:08:42;;;;;;;8.27;6.50;;;22.90;96.80;;;;;;5025601;28;20291;-86
2023/08/05 10:11:08;;;;;;;7.33;6.63;;;22.90;95.60;;;;;;5050456;28;20173;-86
2023/08/05 10:13:43;;;;;;;8.13;6.90;;;22.70;94.70;;;;;;5019063;28;20169;-86
2023/08/05 10:16:09;;;;;;;7.27;6.57;;;22.70;97.60;;;;;;5037603;28;20175;-86
2023/08/05 10:18:37;;;;;;;8.63;6.83;;;23.10;97.20;;;;;;5056717;28;20203;-86
2023/08/05 10:21:05;;;;;;;7.97;7.17;;;23.20;95.90;;;;;;5036629;28;20180;-87
2023/08/05 10:23:35;;;;;;;8.33;7.07;;;22.90;93.80;;;;;;5051808;28;20283;-87
2023/08/05 10:26:05;;;;;;;10.77;7.53;;;22.30;95.90;;;;;;5034890;28;20289;-86
2023/08/05 10:28:40;;;;;;;9.83;8.00;;;22.60;94.90;;;;;;5041967;28;20286;-87
2023/08/05 10:31:21;;;;;;;8.20;7.40;;;22.20;96.10;;;;;;5026611;28;20203;-87
2023/08/05 10:34:16;;;;;;;7.57;6.83;;;22.30;97.00;;;;;;5029339;28;20444;-87
2023/08/05 10:36:44;;;;;;;7.20;6.50;;;22.80;96.60;;;;;;5038533;28;20279;-87
2023/08/05 10:39:41;;;;;;;10.17;9.07;;;23.00;94.50;;;;;;5017056;28;20777;-86
2023/08/05 10:42:32;;;;;;;7.80;7.10;;;23.30;95.00;;;;;;5022771;28;20208;-87
2023/08/05 10:45:03;;;;;;;7.47;6.70;;;23.50;95.10;;;;;;5041685;28;20185;-86
2023/08/05 10:47:29;;;;;;;7.83;7.03;;;23.40;95.10;;;;;;5015747;28;20194;-86
2023/08/05 10:49:59;;;;;;;8.17;6.83;;;23.50;95.20;;;;;;5021141;28;20243;-87
2023/08/05 10:52:26;;;;;;;8.63;7.17;;;23.60;93.20;;;;;;5033215;28;20554;-87
2023/08/05 10:54:53;;;;;;;8.47;7.67;;;23.10;93.40;;;;;;5030259;28;20211;-86
2023/08/05 10:57:34;;;;;;;8.03;7.33;;;22.50;93.70;;;;;;5028903;28;20203;-87
2023/08/05 11:00:01;;;;;;;10.67;9.40;;;22.70;95.60;;;;;;5017658;28;20335;-87
2023/08/05 11:02:26;;;;;;;7.83;7.10;;;22.80;94.00;;;;;;5033566;28;20177;-86
2023/08/05 11:05:11;;;;;;;12.07;7.80;;;22.50;94.40;;;;;;5018466;28;20173;-86
2023/08/05 11:07:39;;;;;;;7.83;7.07;;;22.60;95.60;;;;;;5030084;28;20270;-87
2023/08/05 11:10:06;;;;;;;7.27;6.50;;;23.00;94.00;;;;;;5032767;28;20181;-86
2023/08/05 11:12:32;;;;;;;7.43;6.73;;;22.90;93.50;;;;;;5018140;28;20183;-87
2023/08/05 11:14:59;;;;;;;8.60;6.40;;;22.90;94.00;;;;;;5033166;28;20177;-86
2023/08/05 11:17:25;;;;;;;7.13;6.43;;;23.20;94.00;;;;;;5031687;28;20601;-87
2023/08/05 11:19:51;;;;;;;8.13;7.00;;;23.10;93.00;;;;;;5028218;28;20189;-87
2023/08/05 11:22:36;;;;;;;7.10;6.43;;;23.00;93.10;;;;;;5014298;28;20184;-87
2023/08/05 11:25:03;;;;;;;7.60;6.80;;;23.10;93.40;;;;;;5011940;28;20559;-86
2023/08/05 11:27:34;;;;;;;8.77;6.80;;;23.10;93.10;;;;;;5019035;28;20180;-86
2023/08/05 11:30:29;;;;;;;8.50;6.30;;;23.00;92.70;;;;;;5013787;28;20299;-86
2023/08/05 11:32:57;;;;;;;6.80;6.10;;;23.20;93.90;;;;;;5000583;28;20185;-86
2023/08/05 11:35:27;;;;;;;7.10;6.40;;;23.30;93.10;;;;;;5014060;28;20271;-86
2023/08/05 11:37:53;;;;;;;6.40;5.80;;;23.40;92.40;;;;;;5016933;28;20188;-86
2023/08/05 11:40:19;;;;;;;7.27;6.20;;;23.30;92.40;;;;;;5019402;28;20180;-86
2023/08/05 11:42:45;;;;;;;7.90;6.40;;;23.40;91.90;;;;;;5017425;28;20579;-87
2023/08/05 11:45:13;;;;;;;6.23;5.63;;;23.20;91.70;;;;;;5018281;28;20184;-87
2023/08/05 11:47:40;;;;;;;5.93;5.40;;;23.20;92.40;;;;;;5018171;28;20185;-87
2023/08/05 11:50:06;;;;;;;6.30;5.70;;;23.20;92.00;;;;;;5035987;28;20240;-87
2023/08/05 11:52:32;;;;;;;6.93;6.13;;;23.10;93.40;;;;;;5034783;28;20366;-88
2023/08/05 11:55:00;;;;;;;7.90;6.03;;;23.10;93.60;;;;;;5014376;28;20333;-87
2023/08/05 11:57:27;;;;;;;5.73;5.23;;;23.00;93.10;;;;;;5012723;28;20239;-86
2023/08/05 11:59:55;;;;;;;7.50;6.23;;;23.00;93.90;;;;;;5015057;28;20209;-86
2023/08/05 12:02:22;;;;;;;6.60;6.00;;;23.10;94.20;;;;;;5016527;28;20653;-86
2023/08/05 12:04:57;;;;;;;6.13;5.53;;;22.90;93.00;;;;;;5033280;28;20188;-86
2023/08/05 12:07:27;;;;;;;6.57;5.53;;;23.00;93.70;;;;;;5020543;28;20248;-86
2023/08/05 12:10:13;;;;;;;7.10;5.73;;;23.00;94.00;;;;;;5020589;28;20219;-87
2023/08/05 12:12:43;;;;;;;6.67;5.20;;;23.10;93.70;;;;;;5032736;28;20291;-87
2023/08/05 12:15:25;;;;;;;7.37;5.50;;;23.10;92.90;;;;;;5018799;28;20184;-86
2023/08/05 12:18:04;;;;;;;5.87;5.37;;;23.10;93.30;;;;;;5019737;28;20196;-87
2023/08/05 12:20:33;;;;;;;7.03;5.40;;;23.20;93.60;;;;;;5034696;28;20542;-87
2023/08/05 12:22:59;;;;;;;5.47;4.97;;;23.20;93.50;;;;;;5019365;28;20291;-86
2023/08/05 12:25:25;;;;;;;5.80;5.13;;;23.30;93.10;;;;;;5019163;28;20294;-87
2023/08/05 12:27:52;;;;;;;6.50;5.53;;;23.30;92.80;;;;;;5014687;28;20487;-86
2023/08/05 12:30:18;;;;;;;5.93;4.87;;;23.30;93.50;;;;;;5033376;28;20321;-86
2023/08/05 12:32:44;;;;;;;6.10;5.50;;;23.30;93.80;;;;;;5018107;28;20203;-86
2023/08/05 12:35:10;;;;;;;6.53;5.40;;;23.40;93.40;;;;;;5016265;28;20424;-87
2023/08/05 12:37:41;;;;;;;6.03;5.27;;;23.10;93.10;;;;;;5013861;28;20392;-86
2023/08/05 12:40:09;;;;;;;6.00;5.40;;;23.10;94.70;;;;;;5020090;28;20216;-86
2023/08/05 12:42:35;;;;;;;5.60;5.10;;;23.20;93.30;;;;;;5015295;28;20711;-86
2023/08/05 12:45:05;;;;;;;5.43;4.90;;;23.30;93.30;;;;;;5015171;28;20249;-86
2023/08/05 12:47:33;;;;;;;5.33;4.67;;;23.40;93.80;;;;;;5031874;28;20181;-86
2023/08/05 12:49:59;;;;;;;6.17;5.57;;;23.40;93.80;;;;;;5019719;28;20207;-86